createdAt,value
2018-04-29T00:02:07.208Z,11.47
2018-04-29T00:04:36.240Z,12.87
2018-04-29T00:07:05.398Z,12.80
2018-04-29T00:09:34.542Z,13.57
2018-04-29T00:12:04.021Z,12.10
2018-04-29T00:14:34.024Z,12.03
2018-04-29T00:17:03.091Z,12.10
2018-04-29T00:19:32.440Z,11.73
2018-04-29T00:22:01.941Z,11.77
2018-04-29T00:24:31.028Z,10.57
2018-04-29T00:27:00.416Z,10.97
2018-04-29T00:29:29.571Z,10.73
2018-04-29T00:31:59.764Z,9.83
2018-04-29T00:34:29.038Z,10.57
2018-04-29T00:36:58.116Z,9.70
2018-04-29T00:39:27.606Z,9.37
2018-04-29T00:41:56.779Z,9.37
2018-04-29T00:44:25.748Z,9.70
2018-04-29T00:46:54.871Z,9.67
2018-04-29T00:49:24.348Z,9.87
2018-04-29T00:52:04.584Z,10.10
2018-04-29T00:54:36.760Z,10.63
2018-04-29T00:57:06.069Z,9.87
2018-04-29T00:59:35.333Z,9.47
2018-04-29T01:02:04.400Z,9.07
2018-04-29T01:04:33.609Z,9.00
2018-04-29T01:07:02.847Z,9.67
2018-04-29T01:09:32.272Z,9.90
2018-04-29T01:12:01.507Z,9.23
2018-04-29T01:14:30.713Z,9.17
2018-04-29T01:16:59.869Z,9.73
2018-04-29T01:19:28.996Z,9.30
2018-04-29T01:21:58.188Z,10.23
2018-04-29T01:24:27.692Z,9.90
2018-04-29T01:26:56.712Z,9.83
2018-04-29T01:29:25.920Z,10.20
2018-04-29T01:31:55.276Z,9.27
2018-04-29T01:34:24.275Z,9.77
2018-04-29T01:36:53.485Z,10.00
2018-04-29T01:39:22.536Z,10.77
2018-04-29T01:41:51.568Z,11.27
2018-04-29T01:44:20.908Z,9.77
2018-04-29T01:46:49.979Z,9.90
2018-04-29T01:49:19.365Z,9.77
2018-04-29T01:51:48.756Z,9.37
2018-04-29T01:54:17.780Z,10.03
2018-04-29T01:56:47.067Z,9.60
2018-04-29T01:59:16.384Z,9.10
2018-04-29T02:01:45.498Z,9.80
2018-04-29T02:04:15.006Z,9.70
2018-04-29T02:06:44.412Z,9.27
2018-04-29T02:09:13.553Z,9.20
2018-04-29T02:11:42.504Z,9.10
2018-04-29T02:14:11.834Z,9.47
2018-04-29T02:16:41.027Z,8.60
2018-04-29T02:19:10.462Z,8.67
2018-04-29T02:21:39.475Z,9.03
2018-04-29T02:24:08.476Z,9.10
2018-04-29T02:26:37.586Z,9.30
2018-04-29T02:29:06.695Z,7.97
2018-04-29T02:31:35.930Z,8.47
2018-04-29T02:34:05.049Z,8.67
2018-04-29T02:36:34.065Z,8.37
2018-04-29T02:39:03.209Z,8.70
2018-04-29T02:41:32.474Z,8.27
2018-04-29T02:44:01.654Z,7.70
2018-04-29T02:46:30.604Z,8.33
2018-04-29T02:48:59.893Z,8.67
2018-04-29T02:51:29.100Z,8.60
2018-04-29T02:53:58.522Z,8.70
2018-04-29T02:56:27.644Z,8.07
2018-04-29T02:58:56.784Z,8.13
2018-04-29T03:01:26.332Z,8.03
2018-04-29T03:03:55.476Z,8.50
2018-04-29T03:06:24.546Z,7.93
2018-04-29T03:08:53.739Z,8.27
2018-04-29T03:11:23.080Z,8.10
2018-04-29T03:13:52.301Z,8.23
2018-04-29T03:16:21.331Z,7.93
2018-04-29T03:18:50.348Z,8.03
2018-04-29T03:21:19.501Z,8.87
2018-04-29T03:23:48.604Z,8.50
2018-04-29T03:26:17.772Z,8.47
2018-04-29T03:28:47.700Z,7.97
2018-04-29T03:31:16.880Z,8.03
2018-04-29T03:33:45.944Z,8.33
2018-04-29T03:36:15.028Z,8.00
2018-04-29T03:38:44.176Z,8.27
2018-04-29T03:41:13.360Z,7.83
2018-04-29T03:43:42.429Z,6.93
2018-04-29T03:46:11.440Z,7.83
2018-04-29T03:48:40.629Z,8.20
2018-04-29T03:51:09.738Z,8.40
2018-04-29T03:53:38.937Z,8.30
2018-04-29T03:56:08.381Z,7.83
2018-04-29T03:58:48.933Z,8.40
2018-04-29T04:01:29.258Z,8.67
2018-04-29T04:03:59.166Z,7.47
2018-04-29T04:06:28.347Z,7.83
2018-04-29T04:08:57.591Z,7.53
2018-04-29T04:11:26.696Z,7.73
2018-04-29T04:13:55.869Z,7.83
2018-04-29T04:16:24.936Z,7.57
2018-04-29T04:18:54.192Z,7.50
2018-04-29T04:21:23.443Z,8.40
2018-04-29T04:23:52.720Z,8.03
2018-04-29T04:26:22.071Z,7.53
2018-04-29T04:28:51.265Z,7.23
2018-04-29T04:31:20.524Z,6.87
2018-04-29T04:33:49.810Z,7.23
2018-04-29T04:36:19.043Z,7.93
2018-04-29T04:38:48.003Z,6.17
2018-04-29T04:41:17.420Z,6.50
2018-04-29T04:43:46.862Z,7.13
2018-04-29T04:46:16.270Z,6.73
2018-04-29T04:48:45.497Z,6.43
2018-04-29T04:51:14.509Z,5.60
2018-04-29T04:53:43.620Z,6.60
2018-04-29T04:56:12.948Z,6.30
2018-04-29T04:58:42.298Z,6.70
2018-04-29T05:01:11.635Z,6.40
2018-04-29T05:03:40.834Z,6.23
2018-04-29T05:06:10.160Z,6.40
2018-04-29T05:08:39.665Z,6.63
2018-04-29T05:11:08.712Z,6.53
2018-04-29T05:13:37.718Z,6.37
2018-04-29T05:16:06.767Z,5.90
2018-04-29T05:18:35.715Z,7.00
2018-04-29T05:21:04.856Z,5.60
2018-04-29T05:23:34.280Z,6.50
2018-04-29T05:26:03.445Z,5.93
2018-04-29T05:28:32.460Z,7.03
2018-04-29T05:31:01.575Z,6.90
2018-04-29T05:33:30.653Z,6.80
2018-04-29T05:35:59.840Z,6.13
2018-04-29T05:38:29.083Z,6.13
2018-04-29T05:40:58.550Z,6.43
2018-04-29T05:43:27.825Z,6.50
2018-04-29T05:45:56.776Z,5.60
2018-04-29T05:48:25.865Z,4.80
2018-04-29T05:50:55.178Z,5.70
2018-04-29T05:53:24.519Z,5.70
2018-04-29T05:55:54.304Z,6.10
2018-04-29T05:58:23.485Z,5.60
2018-04-29T06:00:52.704Z,5.87
2018-04-29T06:03:21.976Z,5.60
2018-04-29T06:05:51.478Z,5.47
2018-04-29T06:08:20.604Z,5.70
2018-04-29T06:10:50.002Z,4.90
2018-04-29T06:13:19.079Z,5.87
2018-04-29T06:15:48.072Z,5.20
2018-04-29T06:18:17.167Z,4.73
2018-04-29T06:20:46.573Z,5.27
2018-04-29T06:23:15.675Z,5.40
2018-04-29T06:25:44.739Z,5.13
2018-04-29T06:28:14.044Z,4.60
2018-04-29T06:30:43.139Z,4.50
2018-04-29T06:33:12.168Z,5.17
2018-04-29T06:35:41.150Z,4.30
2018-04-29T06:38:10.197Z,4.67
2018-04-29T06:40:39.397Z,4.63
2018-04-29T06:43:08.596Z,5.10
2018-04-29T06:45:37.719Z,5.40
2018-04-29T06:48:06.977Z,6.03
2018-04-29T06:50:36.237Z,5.43
2018-04-29T06:53:05.579Z,5.10
2018-04-29T06:55:34.648Z,6.07
2018-04-29T06:58:03.933Z,6.00
2018-04-29T07:00:33.211Z,5.30
2018-04-29T07:03:02.368Z,6.00
2018-04-29T07:05:31.484Z,5.87
2018-04-29T07:08:00.605Z,5.10
2018-04-29T07:10:29.855Z,5.40
2018-04-29T07:12:59.050Z,6.50
2018-04-29T07:15:28.364Z,5.20
2018-04-29T07:17:57.708Z,6.00
2018-04-29T07:20:27.034Z,6.00
2018-04-29T07:22:56.166Z,5.10
2018-04-29T07:25:25.395Z,5.30
2018-04-29T07:27:54.539Z,5.30
2018-04-29T07:30:23.877Z,5.53
2018-04-29T07:32:53.349Z,5.60
2018-04-29T07:35:22.308Z,5.93
2018-04-29T07:37:51.464Z,5.50
2018-04-29T07:40:20.524Z,5.10
2018-04-29T07:42:49.593Z,5.30
2018-04-29T07:45:18.985Z,5.90
2018-04-29T07:47:47.940Z,5.80
2018-04-29T07:50:17.122Z,5.80
2018-04-29T07:52:46.332Z,5.57
2018-04-29T07:55:15.744Z,5.47
2018-04-29T07:57:44.948Z,6.10
2018-04-29T08:00:14.092Z,6.17
2018-04-29T08:02:43.247Z,5.97
2018-04-29T08:05:12.476Z,5.90
2018-04-29T08:07:41.859Z,5.87
2018-04-29T08:10:10.939Z,5.37
2018-04-29T08:12:40.740Z,5.80
2018-04-29T08:15:09.787Z,5.20
2018-04-29T08:17:38.942Z,5.87
2018-04-29T08:20:08.172Z,5.40
2018-04-29T08:22:37.181Z,4.90
2018-04-29T08:25:06.300Z,5.37
2018-04-29T08:27:35.377Z,5.63
2018-04-29T08:30:04.948Z,5.70
2018-04-29T08:32:33.980Z,5.30
2018-04-29T08:35:03.077Z,5.00
2018-04-29T08:37:32.343Z,5.23
2018-04-29T08:40:01.368Z,4.90
2018-04-29T08:42:30.440Z,5.00
2018-04-29T08:44:59.625Z,5.13
2018-04-29T08:47:28.885Z,4.93
2018-04-29T08:49:58.436Z,5.03
2018-04-29T08:52:27.846Z,5.10
2018-04-29T08:54:56.988Z,4.70
2018-04-29T08:57:26.077Z,4.73
2018-04-29T08:59:55.207Z,5.77
2018-04-29T09:02:24.880Z,5.73
2018-04-29T09:04:53.968Z,4.60
2018-04-29T09:07:23.429Z,5.37
2018-04-29T09:09:52.512Z,4.73
2018-04-29T09:12:21.520Z,4.80
2018-04-29T09:14:50.512Z,4.67
2018-04-29T09:17:20.463Z,5.43
2018-04-29T09:19:49.650Z,5.57
2018-04-29T09:22:18.847Z,5.03
2018-04-29T09:24:48.054Z,5.30
2018-04-29T09:27:17.256Z,5.73
2018-04-29T09:29:46.556Z,5.40
2018-04-29T09:32:16.073Z,5.30
2018-04-29T09:34:45.256Z,4.90
2018-04-29T09:37:14.645Z,5.57
2018-04-29T09:39:43.767Z,5.30
2018-04-29T09:42:12.945Z,5.60
2018-04-29T09:44:42.056Z,5.43
2018-04-29T09:47:11.119Z,4.53
2018-04-29T09:49:40.287Z,5.20
2018-04-29T09:52:09.649Z,5.13
2018-04-29T09:54:38.799Z,5.27
2018-04-29T09:57:08.200Z,5.20
2018-04-29T09:59:37.360Z,5.30
2018-04-29T10:02:11.215Z,5.17
2018-04-29T10:04:40.339Z,4.93
2018-04-29T10:07:09.369Z,5.67
2018-04-29T10:09:38.503Z,4.60
2018-04-29T10:12:07.614Z,5.00
2018-04-29T10:14:36.704Z,5.00
2018-04-29T10:17:06.058Z,4.67
2018-04-29T10:19:35.679Z,5.00
2018-04-29T10:22:05.084Z,5.20
2018-04-29T10:24:34.462Z,5.13
2018-04-29T10:27:04.009Z,4.70
2018-04-29T10:29:33.279Z,4.70
2018-04-29T10:32:02.538Z,5.23
2018-04-29T10:34:32.512Z,5.07
2018-04-29T10:37:01.795Z,5.67
2018-04-29T10:39:31.264Z,5.40
2018-04-29T10:42:00.435Z,4.27
2018-04-29T10:44:29.532Z,4.80
2018-04-29T10:46:59.026Z,4.87
2018-04-29T10:49:28.185Z,4.53
2018-04-29T10:51:57.227Z,4.87
2018-04-29T10:54:26.527Z,5.00
2018-04-29T10:56:55.646Z,4.93
2018-04-29T10:59:24.879Z,4.40
2018-04-29T11:01:54.460Z,4.63
2018-04-29T11:04:23.686Z,4.67
2018-04-29T11:06:52.864Z,4.47
2018-04-29T11:09:22.121Z,4.83
2018-04-29T11:11:51.357Z,4.63
2018-04-29T11:14:20.465Z,4.60
2018-04-29T11:16:49.773Z,4.30
2018-04-29T11:19:18.824Z,4.60
2018-04-29T11:21:48.090Z,4.90
2018-04-29T11:24:17.045Z,4.93
2018-04-29T11:26:46.241Z,4.80
2018-04-29T11:29:15.364Z,5.00
2018-04-29T11:31:44.502Z,4.93
2018-04-29T11:34:13.555Z,4.60
2018-04-29T11:36:42.745Z,4.87
2018-04-29T11:39:12.044Z,4.30
2018-04-29T11:41:41.467Z,5.17
2018-04-29T11:44:10.895Z,4.20
2018-04-29T11:46:39.904Z,4.77
2018-04-29T11:49:09.265Z,5.00
2018-04-29T11:51:38.483Z,4.50
2018-04-29T11:54:07.612Z,5.53
2018-04-29T11:56:37.035Z,5.40
2018-04-29T11:59:06.505Z,5.27
2018-04-29T12:01:35.842Z,5.67
2018-04-29T12:04:05.113Z,4.97
2018-04-29T12:06:34.167Z,5.10
2018-04-29T12:09:03.300Z,5.67
2018-04-29T12:11:33.040Z,4.93
2018-04-29T12:14:02.144Z,4.93
2018-04-29T12:16:31.375Z,5.20
2018-04-29T12:19:00.680Z,4.80
2018-04-29T12:21:29.820Z,4.83
2018-04-29T12:23:59.099Z,5.03
2018-04-29T12:26:28.215Z,5.23
2018-04-29T12:28:57.272Z,4.53
2018-04-29T12:31:26.644Z,4.50
2018-04-29T12:33:55.764Z,4.90
2018-04-29T12:36:25.075Z,5.13
2018-04-29T12:38:54.295Z,4.57
2018-04-29T12:41:23.408Z,5.33
2018-04-29T12:43:52.571Z,5.50
2018-04-29T12:46:21.703Z,4.53
2018-04-29T12:48:50.696Z,5.47
2018-04-29T12:51:19.800Z,4.77
2018-04-29T12:53:48.888Z,5.00
2018-04-29T12:56:18.048Z,4.30
2018-04-29T12:58:47.460Z,4.70
2018-04-29T13:01:16.476Z,4.60
2018-04-29T13:03:45.519Z,4.80
2018-04-29T13:06:15.053Z,4.73
2018-04-29T13:08:44.370Z,4.77
2018-04-29T13:11:13.542Z,4.70
2018-04-29T13:13:42.647Z,4.73
2018-04-29T13:16:11.844Z,4.53
2018-04-29T13:18:41.212Z,4.90
2018-04-29T13:21:10.573Z,4.83
2018-04-29T13:23:39.621Z,3.90
2018-04-29T13:26:08.811Z,4.50
2018-04-29T13:28:38.210Z,4.80
2018-04-29T13:31:07.231Z,4.33
2018-04-29T13:33:36.464Z,4.03
2018-04-29T13:36:05.541Z,5.00
2018-04-29T13:38:34.932Z,4.10
2018-04-29T13:41:04.069Z,4.00
2018-04-29T13:43:33.351Z,4.33
2018-04-29T13:46:02.841Z,4.37
2018-04-29T13:48:31.848Z,4.13
2018-04-29T13:51:01.065Z,4.00
2018-04-29T13:53:30.248Z,3.47
2018-04-29T13:55:59.300Z,3.50
2018-04-29T13:58:28.375Z,3.57
2018-04-29T14:00:57.364Z,3.47
2018-04-29T14:03:26.583Z,3.60
2018-04-29T14:05:55.699Z,3.80
2018-04-29T14:08:24.987Z,3.50
2018-04-29T14:10:54.257Z,3.67
2018-04-29T14:13:23.352Z,3.43
2018-04-29T14:15:52.781Z,3.53
2018-04-29T14:18:21.936Z,3.90
2018-04-29T14:20:51.052Z,3.70
2018-04-29T14:23:20.252Z,3.57
2018-04-29T14:25:49.636Z,4.50
2018-04-29T14:28:18.809Z,3.30
2018-04-29T14:30:48.056Z,3.30
2018-04-29T14:33:17.108Z,3.87
2018-04-29T14:35:46.452Z,3.60
2018-04-29T14:38:15.733Z,3.43
2018-04-29T14:40:45.050Z,3.50
2018-04-29T14:43:14.862Z,3.60
2018-04-29T14:45:44.149Z,3.70
2018-04-29T14:48:13.396Z,3.30
2018-04-29T14:50:42.456Z,3.57
2018-04-29T14:53:11.621Z,3.53
2018-04-29T14:55:40.864Z,3.27
2018-04-29T14:58:10.585Z,4.00
2018-04-29T15:00:39.768Z,2.90
2018-04-29T15:03:08.840Z,3.23
2018-04-29T15:05:37.784Z,3.10
2018-04-29T15:08:06.989Z,3.43
2018-04-29T15:10:36.056Z,3.30
2018-04-29T15:13:05.488Z,3.43
2018-04-29T15:15:34.750Z,3.27
2018-04-29T15:18:03.756Z,3.23
2018-04-29T15:20:32.624Z,3.53
2018-04-29T15:23:01.991Z,3.33
2018-04-29T15:25:31.250Z,3.13
2018-04-29T15:28:00.376Z,3.30
2018-04-29T15:30:29.500Z,3.37
2018-04-29T15:32:58.647Z,2.90
2018-04-29T15:35:27.853Z,2.90
2018-04-29T15:37:57.300Z,3.10
2018-04-29T15:40:26.723Z,3.33
2018-04-29T15:42:55.951Z,2.90
2018-04-29T15:45:25.048Z,3.40
2018-04-29T15:47:54.232Z,3.03
2018-04-29T15:50:23.369Z,3.60
2018-04-29T15:52:52.435Z,3.20
2018-04-29T15:55:21.784Z,3.03
2018-04-29T15:57:52.192Z,3.37
2018-04-29T16:00:21.205Z,2.87
2018-04-29T16:02:50.190Z,3.03
2018-04-29T16:05:19.264Z,3.07
2018-04-29T16:07:48.360Z,3.00
2018-04-29T16:10:17.481Z,2.90
2018-04-29T16:12:46.535Z,3.23
2018-04-29T16:15:15.741Z,3.40
2018-04-29T16:17:45.126Z,3.20
2018-04-29T16:20:14.260Z,2.97
2018-04-29T16:22:43.345Z,3.57
2018-04-29T16:25:12.621Z,3.07
2018-04-29T16:27:41.664Z,3.07
2018-04-29T16:30:10.716Z,3.73
2018-04-29T16:32:39.801Z,3.60
2018-04-29T16:35:08.913Z,3.57
2018-04-29T16:37:38.197Z,3.50
2018-04-29T16:40:07.570Z,3.30
2018-04-29T16:42:36.668Z,4.33
2018-04-29T16:45:05.702Z,4.00
2018-04-29T16:47:34.791Z,4.30
2018-04-29T16:50:04.008Z,3.63
2018-04-29T16:52:33.197Z,4.30
2018-04-29T16:55:02.355Z,4.57
2018-04-29T16:57:31.544Z,4.27
2018-04-29T17:00:00.748Z,4.70
2018-04-29T17:02:29.933Z,4.73
2018-04-29T17:04:58.900Z,4.90
2018-04-29T17:07:27.935Z,5.40
2018-04-29T17:09:56.925Z,4.60
2018-04-29T17:12:25.928Z,5.67
2018-04-29T17:14:55.136Z,5.07
2018-04-29T17:17:24.261Z,5.33
2018-04-29T17:19:53.528Z,5.20
2018-04-29T17:22:22.668Z,4.93
2018-04-29T17:24:51.833Z,5.70
2018-04-29T17:27:21.037Z,5.63
2018-04-29T17:29:50.318Z,5.60
2018-04-29T17:32:19.380Z,5.27
2018-04-29T17:34:48.452Z,5.17
2018-04-29T17:37:17.563Z,5.60
2018-04-29T17:39:46.645Z,5.60
2018-04-29T17:42:15.779Z,5.43
2018-04-29T17:44:45.053Z,5.37
2018-04-29T17:47:14.230Z,6.17
2018-04-29T17:49:43.417Z,5.87
2018-04-29T17:52:12.568Z,6.37
2018-04-29T17:54:41.663Z,5.17
2018-04-29T17:57:10.844Z,5.90
2018-04-29T17:59:40.398Z,5.80
2018-04-29T18:02:09.405Z,5.50
2018-04-29T18:04:38.733Z,5.83
2018-04-29T18:07:08.065Z,6.30
2018-04-29T18:09:37.433Z,6.00
2018-04-29T18:12:06.396Z,5.93
2018-04-29T18:14:35.568Z,6.00
2018-04-29T18:17:04.706Z,7.07
2018-04-29T18:19:33.764Z,5.87
2018-04-29T18:22:02.979Z,5.90
2018-04-29T18:24:32.376Z,6.30
2018-04-29T18:27:01.437Z,6.03
2018-04-29T18:29:30.624Z,6.37
2018-04-29T18:31:59.664Z,6.13
2018-04-29T18:34:28.720Z,6.33
2018-04-29T18:36:57.837Z,6.10
2018-04-29T18:39:27.088Z,6.27
2018-04-29T18:41:56.196Z,6.30
2018-04-29T18:44:25.292Z,6.20
2018-04-29T18:46:54.366Z,7.60
2018-04-29T18:49:23.468Z,6.83
2018-04-29T18:51:52.532Z,6.10
2018-04-29T18:54:21.588Z,7.10
2018-04-29T18:56:50.874Z,6.70
2018-04-29T18:59:19.932Z,6.50
2018-04-29T19:01:48.919Z,6.67
2018-04-29T19:04:18.067Z,8.50
2018-04-29T19:06:47.100Z,7.13
2018-04-29T19:09:16.216Z,7.30
2018-04-29T19:11:45.565Z,7.10
2018-04-29T19:14:15.391Z,7.73
2018-04-29T19:16:44.568Z,7.57
2018-04-29T19:19:13.869Z,6.83
2018-04-29T19:21:42.983Z,7.70
2018-04-29T19:24:12.102Z,8.30
2018-04-29T19:26:41.350Z,9.03
2018-04-29T19:29:10.543Z,7.47
2018-04-29T19:31:39.863Z,7.57
2018-04-29T19:34:08.844Z,8.57
2018-04-29T19:36:38.170Z,7.10
2018-04-29T19:39:07.196Z,7.93
2018-04-29T19:41:36.321Z,8.80
2018-04-29T19:44:05.603Z,8.27
2018-04-29T19:46:35.047Z,7.87
2018-04-29T19:49:04.323Z,7.67
2018-04-29T19:51:33.355Z,7.87
2018-04-29T19:54:02.441Z,8.03
2018-04-29T19:56:31.523Z,9.30
2018-04-29T19:59:00.680Z,7.80
2018-04-29T20:01:29.897Z,8.03
2018-04-29T20:03:58.974Z,7.77
2018-04-29T20:06:28.145Z,8.23
2018-04-29T20:08:57.195Z,8.03
2018-04-29T20:11:26.219Z,8.57
2018-04-29T20:13:55.036Z,8.77
2018-04-29T20:16:23.887Z,9.33
2018-04-29T20:18:53.075Z,8.73
2018-04-29T20:21:22.402Z,8.93
2018-04-29T20:23:51.605Z,10.83
2018-04-29T20:26:20.644Z,9.63
2018-04-29T20:28:49.998Z,10.47
2018-04-29T20:31:19.115Z,9.70
2018-04-29T20:33:48.233Z,9.20
2018-04-29T20:36:17.509Z,9.37
2018-04-29T20:38:46.376Z,12.20
2018-04-29T20:41:15.228Z,10.57
2018-04-29T20:43:44.119Z,9.23
2018-04-29T20:46:13.241Z,9.37
2018-04-29T20:48:42.100Z,10.83
2018-04-29T20:51:11.157Z,10.03
2018-04-29T20:53:40.421Z,9.53
2018-04-29T20:56:09.349Z,9.47
2018-04-29T20:58:38.658Z,10.13
2018-04-29T21:01:07.432Z,10.27
2018-04-29T21:03:36.293Z,10.87
2018-04-29T21:06:05.644Z,10.17
2018-04-29T21:08:34.974Z,10.13
2018-04-29T21:11:03.865Z,9.83
2018-04-29T21:13:33.210Z,8.97
2018-04-29T21:16:02.134Z,9.30
2018-04-29T21:18:31.310Z,9.93
2018-04-29T21:21:00.584Z,9.07
2018-04-29T21:23:29.608Z,9.27
2018-04-29T21:25:58.767Z,14.47
2018-04-29T21:28:27.719Z,9.47
2018-04-29T21:30:57.004Z,8.80
2018-04-29T21:33:26.182Z,9.90
2018-04-29T21:35:55.173Z,9.10
2018-04-29T21:38:24.004Z,8.57
2018-04-29T21:40:53.158Z,8.80
2018-04-29T21:43:22.124Z,9.67
2018-04-29T21:45:51.323Z,8.77
2018-04-29T21:48:20.456Z,9.13
2018-04-29T21:50:49.852Z,8.93
2018-04-29T21:53:18.861Z,9.50
2018-04-29T21:55:47.906Z,9.37
2018-04-29T21:58:16.727Z,9.27
2018-04-29T22:00:45.816Z,9.53
2018-04-29T22:03:14.655Z,8.73
2018-04-29T22:05:43.773Z,9.40
2018-04-29T22:08:12.802Z,9.93
2018-04-29T22:10:41.835Z,8.93
2018-04-29T22:13:10.720Z,8.87
2018-04-29T22:15:39.623Z,9.37
2018-04-29T22:18:08.581Z,9.37
2018-04-29T22:20:37.684Z,9.93
2018-04-29T22:23:06.670Z,9.87
2018-04-29T22:25:35.680Z,9.70
2018-04-29T22:28:04.649Z,10.00
2018-04-29T22:30:33.652Z,9.77
2018-04-29T22:33:02.725Z,9.33
2018-04-29T22:35:31.843Z,9.83
2018-04-29T22:38:00.804Z,10.13
2018-04-29T22:40:30.268Z,10.13
2018-04-29T22:42:59.167Z,9.60
2018-04-29T22:45:28.119Z,10.00
2018-04-29T22:47:57.109Z,10.97
2018-04-29T22:50:26.228Z,10.43
2018-04-29T22:52:55.205Z,11.10
2018-04-29T22:55:25.840Z,11.17
2018-04-29T22:57:54.668Z,10.70
2018-04-29T23:00:24.165Z,10.83
2018-04-29T23:02:53.355Z,10.57
2018-04-29T23:05:22.625Z,11.00
2018-04-29T23:07:51.969Z,10.90
2018-04-29T23:10:21.124Z,10.97
2018-04-29T23:12:50.264Z,11.93
2018-04-29T23:15:19.698Z,12.87
2018-04-29T23:17:49.032Z,14.90
2018-04-29T23:20:18.008Z,15.00
2018-04-29T23:22:47.188Z,16.60
2018-04-29T23:25:16.152Z,16.07
2018-04-29T23:27:45.204Z,15.97
2018-04-29T23:30:14.400Z,16.30
2018-04-29T23:32:43.556Z,15.30
2018-04-29T23:35:12.939Z,15.23
2018-04-29T23:37:42.108Z,14.73
2018-04-29T23:40:11.296Z,15.73
2018-04-29T23:42:40.452Z,16.17
2018-04-29T23:45:09.808Z,15.37
2018-04-29T23:47:39.207Z,16.20
2018-04-29T23:50:08.554Z,16.23
2018-04-29T23:52:37.688Z,16.23
2018-04-29T23:55:06.848Z,15.30
2018-04-29T23:57:36.067Z,15.87
